createdAt,value
2023-05-05T00:00:49.715Z,2.83
2023-05-05T00:04:51.410Z,3.08
2023-05-05T00:08:53.115Z,2.90
2023-05-05T00:12:55.004Z,3.17
2023-05-05T00:16:57.010Z,2.77
2023-05-05T00:20:58.726Z,3.03
2023-05-05T00:25:02.460Z,2.75
2023-05-05T00:29:04.154Z,3.28
2023-05-05T00:33:06.025Z,2.80
2023-05-05T00:37:07.707Z,2.85
2023-05-05T00:41:09.638Z,3.13
2023-05-05T00:45:13.480Z,3.10
2023-05-05T00:49:16.553Z,3.10
2023-05-05T00:53:18.511Z,3.20
2023-05-05T00:57:20.771Z,3.78
2023-05-05T01:01:24.253Z,3.22
2023-05-05T01:05:27.943Z,3.13
2023-05-05T01:09:32.526Z,3.38
2023-05-05T01:13:53.957Z,3.83
2023-05-05T01:18:04.125Z,3.25
2023-05-05T01:22:09.014Z,3.53
2023-05-05T01:26:22.245Z,3.60
2023-05-05T01:30:53.443Z,3.85
2023-05-05T01:35:33.744Z,3.22
2023-05-05T01:39:37.931Z,3.33
2023-05-05T01:43:41.339Z,3.15
2023-05-05T01:47:45.105Z,3.47
2023-05-05T01:51:48.076Z,3.30
2023-05-05T01:55:50.903Z,3.55
2023-05-05T02:03:57.361Z,3.20
2023-05-05T02:08:00.505Z,3.22
2023-05-05T02:12:05.364Z,3.67
2023-05-05T02:16:09.435Z,3.03
2023-05-05T02:20:12.804Z,3.25
2023-05-05T02:24:14.582Z,3.78
2023-05-05T02:28:28.628Z,3.55
2023-05-05T02:32:48.673Z,3.35
2023-05-05T02:36:54.458Z,4.28
2023-05-05T02:40:58.508Z,3.63
2023-05-05T02:45:04.600Z,3.92
2023-05-05T02:49:07.510Z,4.03
2023-05-05T02:53:10.822Z,3.50
2023-05-05T02:57:18.014Z,3.40
2023-05-05T03:01:57.461Z,4.20
2023-05-05T03:06:18.298Z,4.57
2023-05-05T03:10:31.223Z,4.60
2023-05-05T03:14:41.714Z,4.82
2023-05-05T03:18:48.516Z,4.50
2023-05-05T03:22:51.074Z,4.75
2023-05-05T03:26:53.939Z,4.63
2023-05-05T03:30:59.462Z,5.03
2023-05-05T03:35:01.469Z,4.95
2023-05-05T03:39:08.409Z,5.65
2023-05-05T03:43:10.068Z,5.50
2023-05-05T03:47:12.882Z,5.50
2023-05-05T03:51:15.711Z,5.07
2023-05-05T03:55:17.717Z,5.70
2023-05-05T03:59:19.552Z,5.68
2023-05-05T04:03:21.570Z,5.45
2023-05-05T04:07:23.963Z,6.68
2023-05-05T04:11:26.342Z,5.72
2023-05-05T04:15:30.331Z,5.63
2023-05-05T04:19:32.528Z,5.33
2023-05-05T04:23:36.843Z,5.88
2023-05-05T04:27:39.080Z,6.20
2023-05-05T04:31:41.877Z,6.15
2023-05-05T04:35:43.673Z,3.75
2023-05-05T04:39:45.813Z,5.38
2023-05-05T04:43:47.676Z,5.73
2023-05-05T04:47:50.439Z,5.45
2023-05-05T04:51:52.194Z,4.28
2023-05-05T04:55:54.038Z,5.40
2023-05-05T04:59:55.898Z,5.45
2023-05-05T05:03:57.784Z,5.68
2023-05-05T05:07:59.521Z,5.83
2023-05-05T05:12:04.407Z,6.20
2023-05-05T05:16:06.706Z,5.30
2023-05-05T05:20:09.195Z,5.30
2023-05-05T05:28:13.864Z,6.43
2023-05-05T05:32:21.781Z,6.35
2023-05-05T05:36:24.136Z,6.03
2023-05-05T05:40:28.128Z,5.90
2023-05-05T05:44:30.416Z,5.55
2023-05-05T05:48:32.176Z,6.75
2023-05-05T05:52:36.364Z,6.38
2023-05-05T05:56:40.249Z,5.60
2023-05-05T06:00:43.413Z,6.20
2023-05-05T06:04:50.419Z,6.75
2023-05-05T06:08:52.265Z,5.95
2023-05-05T06:12:54.431Z,5.90
2023-05-05T06:16:56.393Z,5.97
2023-05-05T06:21:01.208Z,7.10
2023-05-05T06:25:04.299Z,5.78
2023-05-05T06:29:06.122Z,5.80
2023-05-05T06:33:07.894Z,6.18
2023-05-05T06:37:09.566Z,5.90
2023-05-05T06:41:13.455Z,5.95
2023-05-05T06:45:16.993Z,5.47
2023-05-05T06:49:23.477Z,5.65
2023-05-05T06:53:25.283Z,5.93
2023-05-05T06:57:27.043Z,5.47
2023-05-05T07:01:28.933Z,5.40
2023-05-05T07:05:30.745Z,5.90
2023-05-05T07:09:32.466Z,5.03
2023-05-05T07:13:34.115Z,5.20
2023-05-05T07:17:35.955Z,5.70
2023-05-05T07:21:37.668Z,5.63
2023-05-05T07:25:39.427Z,5.15
2023-05-05T07:29:41.224Z,4.57
2023-05-05T07:33:43.105Z,4.53
2023-05-05T07:37:45.715Z,4.67
2023-05-05T07:45:49.116Z,4.57
2023-05-05T07:49:51.183Z,4.57
2023-05-05T07:53:52.953Z,5.10
2023-05-05T07:57:54.665Z,4.60
2023-05-05T08:01:56.361Z,4.10
2023-05-05T08:06:08.303Z,4.60
2023-05-05T08:10:15.425Z,4.43
2023-05-05T08:14:17.232Z,4.38
2023-05-05T08:18:19.498Z,4.53
2023-05-05T08:22:22.229Z,4.82
2023-05-05T08:26:24.172Z,4.20
2023-05-05T08:30:25.842Z,4.82
2023-05-05T08:34:27.576Z,3.70
2023-05-05T08:38:30.843Z,4.57
2023-05-05T08:42:38.394Z,4.90
2023-05-05T08:46:41.707Z,4.78
2023-05-05T08:50:49.447Z,4.95
2023-05-05T08:55:10.595Z,4.78
2023-05-05T08:59:13.470Z,4.88
2023-05-05T09:03:16.454Z,5.30
2023-05-05T09:07:18.832Z,4.75
2023-05-05T09:11:21.718Z,6.03
2023-05-05T09:15:23.429Z,5.18
2023-05-05T09:19:25.061Z,5.33
2023-05-05T09:23:29.749Z,5.30
2023-05-05T09:27:36.143Z,4.25
2023-05-05T09:31:38.048Z,3.90
2023-05-05T09:35:52.627Z,4.75
2023-05-05T09:39:55.658Z,4.20
2023-05-05T09:43:57.415Z,3.40
2023-05-05T09:48:01.012Z,3.30
2023-05-05T09:52:15.723Z,3.72
2023-05-05T09:56:18.575Z,2.13
2023-05-05T10:00:22.475Z,2.80
2023-05-05T10:04:29.741Z,3.05
2023-05-05T10:08:35.453Z,2.95
2023-05-05T10:12:41.295Z,2.97
2023-05-05T10:21:01.020Z,2.78
2023-05-05T10:25:04.147Z,2.85
2023-05-05T10:29:11.452Z,2.55
2023-05-05T10:33:30.154Z,2.20
2023-05-05T10:37:34.055Z,2.55
2023-05-05T10:45:38.288Z,2.15
2023-05-05T10:49:47.874Z,2.10
2023-05-05T10:54:03.794Z,2.00
2023-05-05T10:58:05.676Z,1.95
2023-05-05T11:02:27.151Z,2.20
2023-05-05T11:06:29.660Z,1.85
2023-05-05T11:10:44.546Z,2.05
2023-05-05T11:14:46.270Z,1.70
2023-05-05T11:18:47.960Z,1.55
2023-05-05T11:23:06.471Z,2.00
2023-05-05T11:27:08.291Z,1.23
2023-05-05T11:31:16.662Z,1.40
2023-05-05T11:35:18.953Z,1.42
2023-05-05T11:43:28.122Z,1.17
2023-05-05T11:47:31.016Z,0.98
2023-05-05T11:51:33.540Z,0.90
2023-05-05T11:55:35.329Z,1.27
2023-05-05T12:00:00.651Z,0.90
2023-05-05T12:04:02.652Z,1.00
2023-05-05T12:08:04.732Z,0.77
2023-05-05T12:16:13.004Z,0.68
2023-05-05T12:20:14.872Z,0.80
2023-05-05T12:24:18.179Z,1.17
2023-05-05T12:32:26.477Z,0.90
2023-05-05T12:36:30.394Z,0.75
2023-05-05T12:40:46.941Z,1.02
2023-05-05T12:44:50.310Z,1.23
2023-05-05T12:49:04.958Z,1.10
2023-05-05T12:53:06.735Z,0.90
2023-05-05T12:57:11.767Z,0.85
2023-05-05T13:01:13.479Z,1.45
2023-05-05T13:09:24.410Z,0.90
2023-05-05T13:13:26.126Z,1.45
2023-05-05T13:17:29.559Z,1.20
2023-05-05T13:21:32.085Z,1.35
2023-05-05T13:25:33.756Z,0.90
2023-05-05T13:29:35.587Z,1.00
2023-05-05T13:33:37.229Z,1.20
2023-05-05T13:37:40.504Z,1.33
2023-05-05T13:41:44.940Z,1.60
2023-05-05T13:45:46.711Z,1.27
2023-05-05T13:49:49.051Z,1.00
2023-05-05T13:53:50.994Z,1.20
2023-05-05T13:57:52.875Z,1.05
2023-05-05T14:01:54.559Z,1.00
2023-05-05T14:09:57.893Z,1.08
2023-05-05T14:18:01.231Z,0.80
2023-05-05T14:22:02.991Z,1.20
2023-05-05T14:26:04.840Z,1.10
2023-05-05T14:34:08.416Z,0.82
2023-05-05T14:38:10.144Z,0.85
2023-05-05T14:42:11.835Z,0.55
2023-05-05T14:46:13.847Z,0.50
2023-05-05T14:50:15.530Z,0.57
2023-05-05T14:54:27.465Z,0.60
2023-05-05T14:58:29.909Z,0.82
2023-05-05T15:02:31.611Z,0.65
2023-05-05T15:06:33.297Z,0.60
2023-05-05T15:10:35.056Z,0.85
2023-05-05T15:14:36.876Z,0.93
2023-05-05T15:18:38.612Z,0.98
2023-05-05T15:22:43.512Z,0.50
2023-05-05T15:26:45.177Z,0.75
2023-05-05T15:30:46.795Z,0.67
2023-05-05T15:57:19.124Z,0.90
2023-05-05T16:01:24.243Z,0.68
2023-05-05T16:05:25.984Z,0.90
2023-05-05T16:09:27.725Z,0.70
2023-05-05T16:13:29.506Z,0.50
2023-05-05T16:17:31.272Z,0.63
2023-05-05T16:21:33.527Z,0.63
2023-05-05T16:25:35.292Z,0.90
2023-05-05T16:29:37.091Z,0.50
2023-05-05T16:33:41.140Z,1.00
2023-05-05T16:37:45.495Z,0.80
2023-05-05T16:41:47.167Z,0.87
2023-05-05T16:45:49.095Z,0.90
2023-05-05T16:49:52.650Z,1.07
2023-05-05T16:53:54.507Z,1.00
2023-05-05T16:57:56.248Z,1.20
2023-05-05T17:01:58.142Z,0.63
2023-05-05T17:06:00.367Z,0.82
2023-05-05T17:10:02.324Z,1.02
2023-05-05T17:14:04.053Z,0.90
2023-05-05T17:18:06.988Z,1.10
2023-05-05T17:22:11.207Z,1.25
2023-05-05T17:26:13.470Z,1.10
2023-05-05T17:30:17.038Z,1.40
2023-05-05T17:34:18.753Z,1.25
2023-05-05T17:38:21.666Z,1.17
2023-05-05T17:42:23.448Z,1.00
2023-05-05T17:46:26.513Z,1.20
2023-05-05T17:50:29.990Z,1.08
2023-05-05T17:54:34.143Z,1.00
2023-05-05T17:58:38.185Z,1.27
2023-05-05T18:02:41.298Z,1.17
2023-05-05T18:06:49.915Z,1.10
2023-05-05T18:11:04.693Z,1.65
2023-05-05T18:15:07.830Z,1.20
2023-05-05T18:19:14.085Z,1.30
2023-05-05T18:23:20.802Z,1.25
2023-05-05T18:27:28.346Z,1.20
2023-05-05T18:31:31.321Z,1.20
2023-05-05T18:35:35.373Z,1.13
2023-05-05T18:39:38.243Z,1.25
2023-05-05T18:43:52.121Z,1.00
2023-05-05T18:48:11.824Z,1.20
2023-05-05T18:52:16.820Z,1.30
2023-05-05T18:56:19.644Z,1.83
2023-05-05T19:00:21.500Z,1.33
2023-05-05T19:04:31.688Z,1.30
2023-05-05T19:08:39.022Z,1.50
2023-05-05T19:12:40.891Z,1.40
2023-05-05T19:16:44.345Z,1.30
2023-05-05T19:25:11.166Z,1.20
2023-05-05T19:29:13.112Z,1.40
2023-05-05T19:33:17.903Z,2.13
2023-05-05T19:37:19.780Z,1.63
2023-05-05T19:41:21.656Z,1.67
2023-05-05T19:45:26.544Z,1.63
2023-05-05T19:49:28.521Z,1.67
2023-05-05T19:53:30.421Z,1.83
2023-05-05T19:57:32.102Z,1.73
2023-05-05T20:01:37.056Z,2.13
2023-05-05T20:05:38.908Z,1.77
2023-05-05T20:09:42.122Z,1.73
2023-05-05T20:13:44.113Z,3.10
2023-05-05T20:17:47.154Z,2.30
2023-05-05T20:21:51.037Z,2.53
2023-05-05T20:25:53.497Z,2.40
2023-05-05T20:29:55.354Z,2.42
2023-05-05T20:33:57.165Z,2.37
2023-05-05T20:42:02.830Z,2.50
2023-05-05T20:46:04.626Z,2.20
2023-05-05T20:50:07.864Z,2.95
2023-05-05T20:54:10.353Z,2.33
2023-05-05T20:58:12.090Z,2.67
2023-05-05T21:02:13.844Z,2.90
2023-05-05T21:06:16.562Z,2.83
2023-05-05T21:10:18.229Z,2.97
2023-05-05T21:14:20.084Z,2.80
2023-05-05T21:18:21.986Z,3.08
2023-05-05T21:22:26.594Z,2.90
2023-05-05T21:26:28.451Z,3.38
2023-05-05T21:30:30.357Z,3.70
2023-05-05T21:34:32.164Z,3.77
2023-05-05T21:38:33.945Z,3.42
2023-05-05T21:42:35.705Z,3.95
2023-05-05T21:46:37.470Z,4.22
2023-05-05T21:50:39.641Z,4.32
2023-05-05T21:54:41.373Z,4.80
2023-05-05T21:58:43.114Z,4.32
2023-05-05T22:02:45.169Z,4.47
2023-05-05T22:06:48.575Z,4.15
2023-05-05T22:10:52.352Z,4.53
2023-05-05T22:14:54.049Z,4.27
2023-05-05T22:18:55.714Z,4.90
2023-05-05T22:22:58.254Z,5.00
2023-05-05T22:27:00.030Z,4.45
2023-05-05T22:31:02.071Z,5.20
2023-05-05T22:35:04.834Z,4.87
2023-05-05T22:39:06.657Z,5.18
2023-05-05T22:43:09.577Z,5.03
2023-05-05T22:47:11.656Z,5.53
2023-05-05T22:51:13.997Z,4.80
2023-05-05T22:55:16.221Z,5.00
2023-05-05T22:59:17.865Z,5.33
2023-05-05T23:03:19.599Z,5.57
2023-05-05T23:07:21.239Z,5.50
2023-05-05T23:11:23.028Z,5.63
2023-05-05T23:15:25.152Z,5.25
2023-05-05T23:19:29.099Z,5.57
2023-05-05T23:23:31.209Z,6.10
2023-05-05T23:27:32.868Z,5.37
2023-05-05T23:31:34.488Z,5.60
2023-05-05T23:35:39.600Z,5.85
2023-05-05T23:39:41.778Z,5.80
2023-05-05T23:43:43.668Z,5.10
2023-05-05T23:47:45.405Z,5.35
2023-05-05T23:51:47.152Z,4.80
2023-05-05T23:55:48.781Z,5.25
2023-05-05T23:59:50.527Z,4.40
